createdAt,value
2024-04-19T00:02:15.733Z,4.80
2024-04-19T00:07:18.882Z,4.60
2024-04-19T00:12:21.427Z,3.90
2024-04-19T00:17:23.958Z,6.10
2024-04-19T00:22:26.523Z,5.80
2024-04-19T00:27:29.094Z,4.80
2024-04-19T00:32:31.742Z,5.70
2024-04-19T00:37:35.415Z,4.90
2024-04-19T00:42:38.592Z,4.80
2024-04-19T00:47:41.583Z,4.40
2024-04-19T00:52:44.561Z,6.20
2024-04-19T00:57:47.407Z,5.50
2024-04-19T01:02:50.284Z,6.40
2024-04-19T01:07:53.256Z,6.20
2024-04-19T01:12:55.913Z,5.10
2024-04-19T01:17:58.704Z,6.00
2024-04-19T01:23:02.534Z,5.20
2024-04-19T01:28:10.320Z,5.70
2024-04-19T01:33:13.781Z,7.00
2024-04-19T01:38:16.722Z,6.80
2024-04-19T01:43:19.194Z,7.80
2024-04-19T01:48:21.919Z,6.20
2024-04-19T01:53:24.426Z,6.30
2024-04-19T01:58:27.311Z,6.30
2024-04-19T02:03:30.230Z,6.30
2024-04-19T02:08:32.793Z,6.60
2024-04-19T02:13:35.408Z,5.90
2024-04-19T02:18:38.205Z,7.40
2024-04-19T02:23:43.084Z,6.60
2024-04-19T02:29:04.914Z,74.10
2024-04-19T02:34:07.604Z,52.80
2024-04-19T02:39:11.183Z,18.00
2024-04-19T02:44:13.739Z,9.80
2024-04-19T02:49:16.300Z,13.40
2024-04-19T02:54:18.834Z,13.00
2024-04-19T02:59:21.518Z,8.80
2024-04-19T03:04:24.224Z,9.10
2024-04-19T03:09:26.810Z,9.00
2024-04-19T03:14:29.358Z,8.10
2024-04-19T03:19:31.922Z,7.60
2024-04-19T03:24:36.085Z,6.70
2024-04-19T03:29:38.808Z,7.10
2024-04-19T03:34:44.341Z,9.60
2024-04-19T03:39:47.088Z,9.20
2024-04-19T03:45:08.357Z,8.20
2024-04-19T03:50:12.427Z,7.10
2024-04-19T03:55:15.050Z,9.30
2024-04-19T04:00:18.513Z,7.10
2024-04-19T04:05:22.460Z,6.20
2024-04-19T04:10:24.978Z,5.40
2024-04-19T04:15:27.527Z,6.50
2024-04-19T04:20:30.060Z,6.60
2024-04-19T04:25:36.368Z,6.00
2024-04-19T04:30:42.466Z,5.30
2024-04-19T04:35:46.033Z,5.50
2024-04-19T04:40:48.603Z,6.00
2024-04-19T04:45:53.021Z,6.40
2024-04-19T04:50:55.678Z,9.00
2024-04-19T04:55:58.197Z,8.90
2024-04-19T05:01:00.729Z,9.10
2024-04-19T05:06:03.608Z,9.10
2024-04-19T05:11:07.469Z,6.10
2024-04-19T05:16:10.782Z,7.80
2024-04-19T05:21:13.268Z,6.70
2024-04-19T05:26:15.944Z,7.60
2024-04-19T05:31:18.850Z,8.30
2024-04-19T05:36:21.395Z,8.00
2024-04-19T05:41:26.402Z,7.70
2024-04-19T05:46:29.372Z,7.70
2024-04-19T05:51:32.130Z,7.60
2024-04-19T05:56:34.773Z,9.20
2024-04-19T06:01:37.576Z,7.80
2024-04-19T06:06:40.158Z,10.30
2024-04-19T06:11:43.256Z,7.10
2024-04-19T06:16:46.778Z,8.40
2024-04-19T06:21:50.751Z,9.10
2024-04-19T06:26:53.827Z,7.60
2024-04-19T06:31:56.466Z,8.50
2024-04-19T06:36:59.278Z,7.20
2024-04-19T06:42:01.899Z,8.50
2024-04-19T06:47:05.959Z,7.80
2024-04-19T06:52:11.475Z,9.10
2024-04-19T06:57:14.129Z,10.30
2024-04-19T07:02:17.228Z,8.40
2024-04-19T07:07:20.027Z,7.00
2024-04-19T07:12:22.699Z,7.20
2024-04-19T07:17:25.699Z,8.30
2024-04-19T07:22:28.853Z,9.00
2024-04-19T07:27:39.012Z,7.80
2024-04-19T07:32:45.799Z,8.60
2024-04-19T07:37:48.647Z,7.90
2024-04-19T07:42:51.398Z,7.60
2024-04-19T07:47:54.657Z,7.90
2024-04-19T07:52:57.493Z,8.60
2024-04-19T07:58:00.374Z,9.80
2024-04-19T08:03:04.037Z,6.10
2024-04-19T08:08:07.116Z,8.00
2024-04-19T08:13:09.991Z,9.10
2024-04-19T08:18:12.648Z,9.20
2024-04-19T08:23:16.456Z,8.60
2024-04-19T08:28:21.099Z,8.30
2024-04-19T08:33:23.965Z,7.90
2024-04-19T08:38:27.518Z,8.20
2024-04-19T08:43:36.374Z,8.40
2024-04-19T08:48:44.027Z,8.10
2024-04-19T08:53:51.433Z,7.70
2024-04-19T08:58:55.168Z,6.90
2024-04-19T09:03:57.906Z,6.50
2024-04-19T09:09:00.804Z,6.90
2024-04-19T09:14:03.550Z,6.70
2024-04-19T09:19:09.921Z,5.50
2024-04-19T09:24:12.955Z,6.60
2024-04-19T09:29:16.878Z,7.20
2024-04-19T09:34:19.701Z,6.40
2024-04-19T09:39:25.973Z,6.40
2024-04-19T09:44:30.297Z,5.90
2024-04-19T09:49:34.599Z,5.90
2024-04-19T09:54:41.622Z,6.10
2024-04-19T09:59:45.839Z,5.50
2024-04-19T10:04:48.819Z,5.50
2024-04-19T10:09:54.954Z,5.60
2024-04-19T10:14:57.827Z,5.90
2024-04-19T10:20:00.741Z,5.70
2024-04-19T10:25:06.709Z,6.30
2024-04-19T10:30:16.290Z,6.50
2024-04-19T10:35:25.204Z,5.50
2024-04-19T10:40:28.464Z,5.50
2024-04-19T10:45:32.175Z,5.10
2024-04-19T10:50:35.312Z,4.50
2024-04-19T10:55:41.447Z,5.20
2024-04-19T11:00:48.792Z,6.50
2024-04-19T11:05:52.072Z,9.40
2024-04-19T11:10:55.091Z,3.10
2024-04-19T11:15:59.326Z,4.00
2024-04-19T11:21:08.343Z,3.90
2024-04-19T11:26:20.574Z,3.80
2024-04-19T11:31:23.455Z,4.40
2024-04-19T11:36:26.999Z,3.50
2024-04-19T11:41:31.245Z,3.60
2024-04-19T11:46:33.976Z,3.70
2024-04-19T11:51:36.868Z,3.60
2024-04-19T11:56:39.867Z,5.00
2024-04-19T12:01:42.753Z,6.00
2024-04-19T12:06:45.510Z,5.20
2024-04-19T12:12:19.758Z,3.50
2024-04-19T12:17:18.114Z,3.80
2024-04-19T12:22:28.969Z,3.40
2024-04-19T12:27:33.393Z,4.00
2024-04-19T12:32:39.601Z,3.50
2024-04-19T12:37:42.742Z,3.90
2024-04-19T12:42:46.464Z,3.30
2024-04-19T12:47:49.595Z,4.50
2024-04-19T12:52:52.650Z,3.40
2024-04-19T12:57:55.403Z,3.30
2024-04-19T13:02:58.431Z,3.20
2024-04-19T13:08:02.495Z,4.50
2024-04-19T13:13:06.473Z,8.60
2024-04-19T13:18:10.906Z,4.10
2024-04-19T13:23:13.707Z,3.60
2024-04-19T13:28:16.311Z,4.10
2024-04-19T13:33:19.033Z,3.50
2024-04-19T13:38:21.740Z,3.90
2024-04-19T13:43:24.384Z,4.00
2024-04-19T13:48:37.774Z,4.10
2024-04-19T13:53:43.861Z,3.90
2024-04-19T13:58:46.462Z,4.10
2024-04-19T14:03:55.752Z,4.30
2024-04-19T14:08:58.536Z,3.60
2024-04-19T14:14:02.718Z,4.50
2024-04-19T14:19:05.386Z,4.60
2024-04-19T14:24:08.111Z,4.70
2024-04-19T14:29:10.893Z,4.40
2024-04-19T14:34:13.593Z,4.10
2024-04-19T14:39:16.408Z,4.30
2024-04-19T14:44:19.063Z,4.60
2024-04-19T14:49:22.566Z,4.50
2024-04-19T14:54:27.507Z,4.20
2024-04-19T14:59:30.217Z,4.30
2024-04-19T15:04:33.401Z,4.60
2024-04-19T15:09:36.068Z,4.00
2024-04-19T15:14:39.501Z,4.20
2024-04-19T15:19:42.198Z,3.90
2024-04-19T15:24:44.840Z,4.70
2024-04-19T15:29:47.483Z,4.50
2024-04-19T15:34:50.181Z,4.20
2024-04-19T15:39:56.113Z,3.90
2024-04-19T15:44:58.975Z,3.50
2024-04-19T15:50:01.817Z,4.40
2024-04-19T15:55:06.232Z,4.00
2024-04-19T16:00:11.792Z,3.60
2024-04-19T16:05:15.552Z,3.60
2024-04-19T16:10:20.056Z,3.40
2024-04-19T16:15:23.786Z,3.40
2024-04-19T16:20:26.380Z,3.90
2024-04-19T16:25:28.950Z,3.80
2024-04-19T16:30:31.598Z,3.20
2024-04-19T16:35:39.370Z,3.10
2024-04-19T16:40:47.357Z,7.30
2024-04-19T16:45:51.629Z,3.80
2024-04-19T16:50:59.535Z,3.30
2024-04-19T16:56:04.742Z,3.00
2024-04-19T17:01:09.123Z,3.00
2024-04-19T17:06:14.902Z,4.20
2024-04-19T17:11:18.940Z,4.70
2024-04-19T17:16:21.635Z,5.30
2024-04-19T17:21:24.660Z,5.00
2024-04-19T17:26:29.471Z,6.00
2024-04-19T17:31:32.185Z,6.50
2024-04-19T17:36:34.792Z,5.50
2024-04-19T17:41:37.481Z,5.30
2024-04-19T17:46:41.413Z,7.20
2024-04-19T17:51:44.071Z,7.10
2024-04-19T17:56:46.748Z,5.30
2024-04-19T18:01:49.432Z,5.10
2024-04-19T18:06:52.163Z,5.10
2024-04-19T18:11:54.798Z,5.50
2024-04-19T18:16:58.049Z,6.40
2024-04-19T18:22:02.190Z,7.00
2024-04-19T18:27:05.059Z,10.70
2024-04-19T18:32:08.420Z,13.90
2024-04-19T18:37:11.120Z,13.40
2024-04-19T18:42:13.765Z,13.90
2024-04-19T18:47:19.830Z,14.20
2024-04-19T18:52:23.012Z,14.30
2024-04-19T18:57:25.801Z,20.50
2024-04-19T19:02:28.375Z,24.50
2024-04-19T19:07:30.942Z,17.00
2024-04-19T19:12:36.900Z,16.00
2024-04-19T19:17:40.598Z,10.80
2024-04-19T19:22:43.341Z,8.70
2024-04-19T19:27:47.164Z,6.70
2024-04-19T19:32:49.932Z,5.80
2024-04-19T19:37:52.744Z,5.40
2024-04-19T19:42:55.456Z,6.70
2024-04-19T19:47:58.182Z,7.30
2024-04-19T19:53:01.048Z,8.50
2024-04-19T19:58:04.218Z,8.90
2024-04-19T20:03:25.460Z,7.90
2024-04-19T20:08:28.285Z,7.30
2024-04-19T20:13:31.064Z,7.50
2024-04-19T20:18:33.967Z,8.70
2024-04-19T20:23:37.116Z,7.90
2024-04-19T20:28:39.851Z,7.30
2024-04-19T20:33:42.536Z,6.70
2024-04-19T20:38:45.295Z,8.30
2024-04-19T20:43:47.900Z,8.30
2024-04-19T20:48:50.542Z,6.90
2024-04-19T20:53:53.196Z,7.00
2024-04-19T20:58:55.747Z,8.00
2024-04-19T21:03:58.630Z,8.20
2024-04-19T21:09:05.165Z,6.90
2024-04-19T21:14:09.716Z,6.00
2024-04-19T21:19:12.421Z,6.20
2024-04-19T21:24:15.178Z,9.20
2024-04-19T21:29:18.832Z,7.50
2024-04-19T21:34:21.853Z,6.40
2024-04-19T21:39:24.788Z,6.20
2024-04-19T21:44:27.586Z,5.10
2024-04-19T21:49:30.340Z,5.50
2024-04-19T21:54:32.952Z,5.40
2024-04-19T21:59:35.572Z,6.60
2024-04-19T22:04:38.820Z,6.10
2024-04-19T22:09:41.531Z,6.40
2024-04-19T22:14:44.210Z,6.60
2024-04-19T22:19:47.236Z,6.00
2024-04-19T22:24:51.465Z,7.00
2024-04-19T22:29:54.804Z,7.20
2024-04-19T22:34:57.536Z,8.20
2024-04-19T22:40:00.258Z,7.50
2024-04-19T22:45:03.394Z,8.00
2024-04-19T22:50:06.525Z,7.80
2024-04-19T22:55:09.226Z,9.20
2024-04-19T23:00:14.497Z,9.50
2024-04-19T23:05:18.053Z,8.30
2024-04-19T23:10:20.625Z,8.60
2024-04-19T23:15:25.536Z,7.10
2024-04-19T23:20:28.274Z,6.90
2024-04-19T23:25:31.522Z,6.20
2024-04-19T23:30:34.128Z,7.10
2024-04-19T23:35:36.771Z,7.70
2024-04-19T23:40:39.343Z,7.50
2024-04-19T23:45:41.931Z,7.80
2024-04-19T23:50:44.562Z,9.30
2024-04-19T23:55:47.149Z,8.30
